createdAt,value
2023-02-18T00:01:46.224Z,22.20
2023-02-18T00:04:15.931Z,21.40
2023-02-18T00:06:44.535Z,21.00
2023-02-18T00:09:13.308Z,22.97
2023-02-18T00:11:42.106Z,22.30
2023-02-18T00:14:15.002Z,19.60
2023-02-18T00:16:45.231Z,20.33
2023-02-18T00:19:17.942Z,22.57
2023-02-18T00:21:47.743Z,25.67
2023-02-18T00:24:17.951Z,24.87
2023-02-18T00:26:47.250Z,24.23
2023-02-18T00:29:15.823Z,21.63
2023-02-18T00:31:45.224Z,22.97
2023-02-18T00:34:15.863Z,22.90
2023-02-18T00:36:44.802Z,21.90
2023-02-18T00:39:14.031Z,22.30
2023-02-18T00:41:43.321Z,20.10
2023-02-18T00:44:13.416Z,21.30
2023-02-18T00:46:43.129Z,23.80
2023-02-18T00:49:11.678Z,21.20
2023-02-18T00:51:41.623Z,22.13
2023-02-18T00:54:11.257Z,22.87
2023-02-18T00:56:39.991Z,23.97
2023-02-18T00:59:08.442Z,25.30
2023-02-18T01:01:36.978Z,23.80
2023-02-18T01:04:05.857Z,23.53
2023-02-18T01:06:34.648Z,21.67
2023-02-18T01:09:06.794Z,21.20
2023-02-18T01:11:35.649Z,21.17
2023-02-18T01:14:04.153Z,22.40
2023-02-18T01:16:32.532Z,25.30
2023-02-18T01:19:00.888Z,23.77
2023-02-18T01:21:31.091Z,22.10
2023-02-18T01:23:59.477Z,24.67
2023-02-18T01:26:29.295Z,19.27
2023-02-18T01:28:57.695Z,21.43
2023-02-18T01:31:26.329Z,21.70
2023-02-18T01:33:55.060Z,21.17
2023-02-18T01:36:26.425Z,18.60
2023-02-18T01:38:57.778Z,19.50
2023-02-18T01:41:26.181Z,18.47
2023-02-18T01:44:19.593Z,19.50
2023-02-18T01:46:49.189Z,19.13
2023-02-18T01:49:21.945Z,19.63
2023-02-18T01:51:54.228Z,18.00
2023-02-18T01:54:28.647Z,15.17
2023-02-18T01:57:02.662Z,17.70
2023-02-18T01:59:39.153Z,18.23
2023-02-18T02:02:12.143Z,17.30
2023-02-18T02:04:41.671Z,15.10
2023-02-18T02:07:11.553Z,15.57
2023-02-18T02:09:42.848Z,15.93
2023-02-18T02:12:43.332Z,15.27
2023-02-18T02:15:37.496Z,15.33
2023-02-18T02:18:22.468Z,17.10
2023-02-18T02:21:40.494Z,15.53
2023-02-18T02:25:04.146Z,14.93
2023-02-18T02:28:06.716Z,15.17
2023-02-18T02:31:13.815Z,15.67
2023-02-18T02:34:30.371Z,14.80
2023-02-18T02:37:10.504Z,15.70
2023-02-18T02:39:53.354Z,13.47
2023-02-18T02:42:35.901Z,10.90
2023-02-18T02:45:12.961Z,12.00
2023-02-18T02:47:50.707Z,11.00
2023-02-18T02:50:27.638Z,11.60
2023-02-18T02:53:01.526Z,11.97
2023-02-18T02:55:29.885Z,10.33
2023-02-18T02:57:58.927Z,10.07
2023-02-18T03:00:44.007Z,11.00
2023-02-18T03:03:33.047Z,10.40
2023-02-18T03:06:58.583Z,9.27
2023-02-18T03:09:43.556Z,9.50
2023-02-18T03:12:24.297Z,9.47
2023-02-18T03:15:00.854Z,9.00
2023-02-18T03:17:36.126Z,9.10
2023-02-18T03:20:17.606Z,8.37
2023-02-18T03:22:50.456Z,8.47
2023-02-18T03:25:22.155Z,11.37
2023-02-18T03:27:54.461Z,9.20
2023-02-18T03:30:29.109Z,9.90
2023-02-18T03:33:04.969Z,9.70
2023-02-18T03:35:33.741Z,9.17
2023-02-18T03:38:13.293Z,10.27
2023-02-18T03:40:42.048Z,9.13
2023-02-18T03:43:10.726Z,8.73
2023-02-18T03:45:40.538Z,9.50
2023-02-18T03:48:09.930Z,9.23
2023-02-18T03:50:38.409Z,8.17
2023-02-18T03:53:08.660Z,8.20
2023-02-18T03:55:38.838Z,8.20
2023-02-18T03:58:07.303Z,8.27
2023-02-18T04:00:35.822Z,7.10
2023-02-18T04:03:04.330Z,7.27
2023-02-18T04:05:32.792Z,7.13
2023-02-18T04:08:01.148Z,7.33
2023-02-18T04:10:30.925Z,7.10
2023-02-18T04:12:59.707Z,6.47
2023-02-18T04:15:28.225Z,6.90
2023-02-18T04:17:56.695Z,5.93
2023-02-18T04:20:25.221Z,5.17
2023-02-18T04:22:53.597Z,5.80
2023-02-18T04:25:22.307Z,5.80
2023-02-18T04:27:52.103Z,5.37
2023-02-18T04:30:20.831Z,4.80
2023-02-18T04:32:49.340Z,5.23
2023-02-18T04:35:18.216Z,4.70
2023-02-18T04:37:46.698Z,5.17
2023-02-18T04:40:15.936Z,4.70
2023-02-18T04:42:44.266Z,4.83
2023-02-18T04:45:13.991Z,4.20
2023-02-18T04:47:42.695Z,3.77
2023-02-18T04:50:12.307Z,4.77
2023-02-18T04:52:42.807Z,3.90
2023-02-18T04:55:11.178Z,3.40
2023-02-18T04:57:39.826Z,3.70
2023-02-18T05:00:11.437Z,3.57
2023-02-18T05:02:41.166Z,2.73
2023-02-18T05:05:10.095Z,3.40
2023-02-18T05:07:38.726Z,2.87
2023-02-18T05:10:09.216Z,3.13
2023-02-18T05:12:40.821Z,2.93
2023-02-18T05:15:10.681Z,2.80
2023-02-18T05:17:41.050Z,2.30
2023-02-18T05:20:10.615Z,2.80
2023-02-18T05:22:39.109Z,3.17
2023-02-18T05:25:08.639Z,3.50
2023-02-18T05:27:38.234Z,2.80
2023-02-18T05:30:08.520Z,3.40
2023-02-18T05:32:37.563Z,3.40
2023-02-18T05:35:08.951Z,5.17
2023-02-18T05:37:38.698Z,4.73
2023-02-18T05:40:09.423Z,6.37
2023-02-18T05:42:37.985Z,5.37
2023-02-18T05:45:07.013Z,6.33
2023-02-18T05:47:35.959Z,6.00
2023-02-18T05:50:04.988Z,6.30
2023-02-18T05:52:35.311Z,6.40
2023-02-18T05:55:04.128Z,7.07
2023-02-18T05:57:32.704Z,7.50
2023-02-18T06:00:01.032Z,10.10
2023-02-18T06:02:29.359Z,9.83
2023-02-18T06:04:57.975Z,8.93
2023-02-18T06:07:26.380Z,9.93
2023-02-18T06:09:56.364Z,9.90
2023-02-18T06:12:24.768Z,9.80
2023-02-18T06:14:53.360Z,8.30
2023-02-18T06:17:22.730Z,7.17
2023-02-18T06:19:51.148Z,8.07
2023-02-18T06:22:19.489Z,7.33
2023-02-18T06:24:48.006Z,8.30
2023-02-18T06:27:17.830Z,8.70
2023-02-18T06:29:46.201Z,10.40
2023-02-18T06:32:14.705Z,11.17
2023-02-18T06:34:44.825Z,11.07
2023-02-18T06:37:13.546Z,11.00
2023-02-18T06:39:44.809Z,10.73
2023-02-18T06:42:13.275Z,11.17
2023-02-18T06:44:43.476Z,9.70
2023-02-18T06:47:11.916Z,9.97
2023-02-18T06:49:40.206Z,8.83
2023-02-18T06:52:08.609Z,7.63
2023-02-18T06:54:38.589Z,8.57
2023-02-18T06:57:07.100Z,6.50
2023-02-18T06:59:35.909Z,6.70
2023-02-18T07:02:05.759Z,9.30
2023-02-18T07:04:34.136Z,10.20
2023-02-18T07:07:02.692Z,9.77
2023-02-18T07:09:31.255Z,11.40
2023-02-18T07:11:59.927Z,10.00
2023-02-18T07:14:28.530Z,11.07
2023-02-18T07:16:56.857Z,10.43
2023-02-18T07:19:26.533Z,10.17
2023-02-18T07:21:57.639Z,11.40
2023-02-18T07:24:26.144Z,10.50
2023-02-18T07:26:54.570Z,10.70
2023-02-18T07:29:23.044Z,10.13
2023-02-18T07:31:51.610Z,10.83
2023-02-18T07:34:20.048Z,9.87
2023-02-18T07:36:50.006Z,9.87
2023-02-18T07:39:20.807Z,11.10
2023-02-18T07:41:49.417Z,9.80
2023-02-18T07:44:18.203Z,10.07
2023-02-18T07:46:48.205Z,8.70
2023-02-18T07:49:20.138Z,7.93
2023-02-18T07:51:50.649Z,8.60
2023-02-18T07:54:19.323Z,7.40
2023-02-18T07:56:48.277Z,7.57
2023-02-18T07:59:17.956Z,7.30
2023-02-18T08:01:48.562Z,6.77
2023-02-18T08:04:17.138Z,6.40
2023-02-18T08:06:50.782Z,6.03
2023-02-18T08:09:20.377Z,5.13
2023-02-18T08:11:49.330Z,4.17
2023-02-18T08:14:18.236Z,4.60
2023-02-18T08:16:48.224Z,4.30
2023-02-18T08:19:17.979Z,4.07
2023-02-18T08:21:46.418Z,4.63
2023-02-18T08:24:16.405Z,3.83
2023-02-18T08:26:59.380Z,3.70
2023-02-18T08:29:29.711Z,3.90
2023-02-18T08:31:59.542Z,4.00
2023-02-18T08:34:28.113Z,3.43
2023-02-18T08:36:56.435Z,3.40
2023-02-18T08:39:26.184Z,3.70
2023-02-18T08:41:54.853Z,2.97
2023-02-18T08:44:23.186Z,3.07
2023-02-18T08:46:52.690Z,3.20
2023-02-18T08:49:24.344Z,3.33
2023-02-18T08:51:53.136Z,3.47
2023-02-18T08:54:21.811Z,3.07
2023-02-18T08:56:54.960Z,2.60
2023-02-18T08:59:23.416Z,2.80
2023-02-18T09:01:51.937Z,3.17
2023-02-18T09:04:21.333Z,2.00
2023-02-18T09:06:50.294Z,2.23
2023-02-18T09:09:19.314Z,2.60
2023-02-18T09:11:47.842Z,2.17
2023-02-18T09:14:17.858Z,1.93
2023-02-18T09:16:46.352Z,2.93
2023-02-18T09:19:14.903Z,3.20
2023-02-18T09:21:44.235Z,2.97
2023-02-18T09:24:12.920Z,2.00
2023-02-18T09:26:41.546Z,2.63
2023-02-18T09:29:10.877Z,2.50
2023-02-18T09:31:43.220Z,2.60
2023-02-18T09:34:11.575Z,2.40
2023-02-18T09:36:42.915Z,2.20
2023-02-18T09:39:12.982Z,2.17
2023-02-18T09:41:46.649Z,2.07
2023-02-18T09:44:22.463Z,1.87
2023-02-18T09:46:56.947Z,2.30
2023-02-18T09:49:28.821Z,2.33
2023-02-18T09:52:01.825Z,2.23
2023-02-18T09:54:30.532Z,2.00
2023-02-18T09:57:00.918Z,1.70
2023-02-18T09:59:31.281Z,2.17
2023-02-18T10:02:02.888Z,2.30
2023-02-18T10:04:48.515Z,1.97
2023-02-18T10:07:28.327Z,1.93
2023-02-18T10:10:01.268Z,2.63
2023-02-18T10:12:35.056Z,2.90
2023-02-18T10:15:04.037Z,3.07
2023-02-18T10:17:35.014Z,2.10
2023-02-18T10:20:08.004Z,2.33
2023-02-18T10:22:39.570Z,2.23
2023-02-18T10:25:09.434Z,2.53
2023-02-18T10:27:42.095Z,2.40
2023-02-18T10:30:25.397Z,2.03
2023-02-18T10:33:02.590Z,2.30
2023-02-18T10:35:39.635Z,2.27
2023-02-18T10:38:17.652Z,2.30
2023-02-18T10:41:00.103Z,1.90
2023-02-18T10:43:40.317Z,2.00
2023-02-18T10:46:23.863Z,1.70
2023-02-18T10:49:10.836Z,1.73
2023-02-18T10:51:48.849Z,2.60
2023-02-18T10:54:17.476Z,1.80
2023-02-18T10:56:50.660Z,2.00
2023-02-18T10:59:24.280Z,1.90
2023-02-18T11:01:59.915Z,1.77
2023-02-18T11:04:39.552Z,1.87
2023-02-18T11:07:14.452Z,1.60
2023-02-18T11:09:49.111Z,2.00
2023-02-18T11:12:25.701Z,1.90
2023-02-18T11:15:17.413Z,2.53
2023-02-18T11:17:48.456Z,2.03
2023-02-18T11:20:33.501Z,2.60
2023-02-18T11:23:20.080Z,1.80
2023-02-18T11:25:59.143Z,2.23
2023-02-18T11:28:44.692Z,2.10
2023-02-18T11:31:22.669Z,1.93
2023-02-18T11:33:54.983Z,2.10
2023-02-18T11:36:30.983Z,2.13
2023-02-18T11:39:04.481Z,2.07
2023-02-18T11:41:37.301Z,4.83
2023-02-18T11:44:19.185Z,2.00
2023-02-18T11:47:01.796Z,1.93
2023-02-18T11:49:32.147Z,1.70
2023-02-18T11:52:18.301Z,2.00
2023-02-18T11:55:02.847Z,1.83
2023-02-18T11:57:32.643Z,1.43
2023-02-18T12:00:02.288Z,2.27
2023-02-18T12:02:40.795Z,1.67
2023-02-18T12:05:17.430Z,2.13
2023-02-18T12:07:50.749Z,1.90
2023-02-18T12:10:29.337Z,2.10
2023-02-18T12:13:07.127Z,2.00
2023-02-18T12:16:05.233Z,2.00
2023-02-18T12:18:51.534Z,1.70
2023-02-18T12:21:43.279Z,2.10
2023-02-18T12:24:48.613Z,2.13
2023-02-18T12:27:25.967Z,1.87
2023-02-18T12:30:24.492Z,2.10
2023-02-18T12:33:00.691Z,1.73
2023-02-18T12:36:01.344Z,2.50
2023-02-18T12:39:02.697Z,2.10
2023-02-18T12:41:56.827Z,2.47
2023-02-18T12:44:45.161Z,2.17
2023-02-18T12:47:40.845Z,1.77
2023-02-18T12:50:45.839Z,1.90
2023-02-18T12:53:50.221Z,1.60
2023-02-18T12:56:53.606Z,1.73
2023-02-18T12:59:57.799Z,2.10
2023-02-18T13:02:49.614Z,2.20
2023-02-18T13:05:33.127Z,1.93
2023-02-18T13:08:20.184Z,2.07
2023-02-18T13:11:25.871Z,2.10
2023-02-18T13:14:12.352Z,1.80
2023-02-18T13:16:42.640Z,2.03
2023-02-18T13:19:22.196Z,1.87
2023-02-18T13:21:54.472Z,1.87
2023-02-18T13:24:32.399Z,2.10
2023-02-18T13:27:14.568Z,1.90
2023-02-18T13:29:54.634Z,2.00
2023-02-18T13:32:32.695Z,1.83
2023-02-18T13:35:18.055Z,2.57
2023-02-18T13:38:12.071Z,2.20
2023-02-18T13:40:42.012Z,2.30
2023-02-18T13:43:29.862Z,3.57
2023-02-18T13:46:11.026Z,3.57
2023-02-18T13:48:46.992Z,3.03
2023-02-18T13:51:18.381Z,2.73
2023-02-18T13:53:53.439Z,3.20
2023-02-18T13:56:27.993Z,3.50
2023-02-18T13:59:02.390Z,2.30
2023-02-18T14:01:44.741Z,2.20
2023-02-18T14:04:54.056Z,2.50
2023-02-18T14:07:48.505Z,2.47
2023-02-18T14:10:34.758Z,5.47
2023-02-18T14:13:25.744Z,5.20
2023-02-18T14:16:00.360Z,5.03
2023-02-18T14:19:02.263Z,3.60
2023-02-18T14:21:41.374Z,2.93
2023-02-18T14:24:13.129Z,1.83
2023-02-18T14:26:46.928Z,2.40
2023-02-18T14:29:30.232Z,2.40
2023-02-18T14:32:05.067Z,4.00
2023-02-18T14:35:24.503Z,2.70
2023-02-18T14:38:32.080Z,2.73
2023-02-18T14:41:26.272Z,2.87
2023-02-18T14:44:39.524Z,4.30
2023-02-18T14:47:26.067Z,2.87
2023-02-18T14:49:58.033Z,2.20
2023-02-18T14:52:34.216Z,2.80
2023-02-18T14:55:06.361Z,2.20
2023-02-18T14:57:42.342Z,2.07
2023-02-18T15:00:19.299Z,1.90
2023-02-18T15:02:50.691Z,2.63
2023-02-18T15:05:22.663Z,2.40
2023-02-18T15:08:17.821Z,2.33
2023-02-18T15:10:52.343Z,2.33
2023-02-18T15:13:24.936Z,2.40
2023-02-18T15:15:56.598Z,3.10
2023-02-18T15:18:34.702Z,2.53
2023-02-18T15:21:03.989Z,3.07
2023-02-18T15:23:38.324Z,2.30
2023-02-18T15:26:09.952Z,1.90
2023-02-18T15:28:44.547Z,2.77
2023-02-18T15:31:15.263Z,1.83
2023-02-18T15:33:45.617Z,2.53
2023-02-18T15:36:16.448Z,2.50
2023-02-18T15:38:46.207Z,3.10
2023-02-18T15:41:18.044Z,4.20
2023-02-18T15:43:56.201Z,4.27
2023-02-18T15:46:26.471Z,3.00
2023-02-18T15:48:57.360Z,2.47
2023-02-18T15:51:30.573Z,2.50
2023-02-18T15:54:03.770Z,3.20
2023-02-18T15:56:37.053Z,4.10
2023-02-18T15:59:18.627Z,3.50
2023-02-18T16:01:51.673Z,3.93
2023-02-18T16:04:22.443Z,3.57
2023-02-18T16:06:54.000Z,3.50
2023-02-18T16:09:28.312Z,2.67
2023-02-18T16:12:00.397Z,2.17
2023-02-18T16:14:32.799Z,4.47
2023-02-18T16:17:17.694Z,2.90
2023-02-18T16:20:08.027Z,5.50
2023-02-18T16:22:44.336Z,2.60
2023-02-18T16:25:22.987Z,2.73
2023-02-18T16:27:55.745Z,3.03
2023-02-18T16:30:27.163Z,2.23
2023-02-18T16:32:55.775Z,2.80
2023-02-18T16:35:27.806Z,2.77
2023-02-18T16:37:57.789Z,3.83
2023-02-18T16:40:45.672Z,3.73
2023-02-18T16:43:16.882Z,3.43
2023-02-18T16:45:49.721Z,5.03
2023-02-18T16:48:25.299Z,4.10
2023-02-18T16:50:56.340Z,4.80
2023-02-18T16:53:24.942Z,3.20
2023-02-18T16:55:54.705Z,3.07
2023-02-18T16:58:23.224Z,4.07
2023-02-18T17:00:53.224Z,5.30
2023-02-18T17:03:22.441Z,4.40
2023-02-18T17:05:50.921Z,4.30
2023-02-18T17:08:23.388Z,5.47
2023-02-18T17:10:55.410Z,3.97
2023-02-18T17:13:25.603Z,4.57
2023-02-18T17:15:56.388Z,3.87
2023-02-18T17:18:27.953Z,4.00
2023-02-18T17:20:57.145Z,4.90
2023-02-18T17:23:26.225Z,9.00
2023-02-18T17:25:56.223Z,5.23
2023-02-18T17:28:24.618Z,6.20
2023-02-18T17:30:58.256Z,8.50
2023-02-18T17:33:27.224Z,7.17
2023-02-18T17:35:55.775Z,7.83
2023-02-18T17:38:25.258Z,7.20
2023-02-18T17:40:55.122Z,8.37
2023-02-18T17:43:25.302Z,8.33
2023-02-18T17:45:55.678Z,10.93
2023-02-18T17:48:24.562Z,10.97
2023-02-18T17:50:54.265Z,11.17
2023-02-18T17:53:23.544Z,11.20
2023-02-18T17:55:52.355Z,10.80
2023-02-18T17:58:22.275Z,12.63
2023-02-18T18:00:53.358Z,10.57
2023-02-18T18:03:22.648Z,10.20
2023-02-18T18:05:54.516Z,11.60
2023-02-18T18:08:23.105Z,12.43
2023-02-18T18:10:54.932Z,15.27
2023-02-18T18:13:28.324Z,13.57
2023-02-18T18:15:58.222Z,13.27
2023-02-18T18:18:27.506Z,12.70
2023-02-18T18:20:59.833Z,13.63
2023-02-18T18:23:29.525Z,13.50
2023-02-18T18:26:00.284Z,15.23
2023-02-18T18:28:32.981Z,15.73
2023-02-18T18:31:02.655Z,18.07
2023-02-18T18:33:34.101Z,18.00
2023-02-18T18:36:03.323Z,12.50
2023-02-18T18:38:31.970Z,13.87
2023-02-18T18:41:00.889Z,10.90
2023-02-18T18:43:35.783Z,11.27
2023-02-18T18:46:04.397Z,12.03
2023-02-18T18:48:32.823Z,11.63
2023-02-18T18:51:02.360Z,11.67
2023-02-18T18:53:33.409Z,11.77
2023-02-18T18:56:04.865Z,14.07
2023-02-18T18:58:35.232Z,14.37
2023-02-18T19:01:07.113Z,17.20
2023-02-18T19:03:37.657Z,15.60
2023-02-18T19:06:06.899Z,15.47
2023-02-18T19:08:35.661Z,13.80
2023-02-18T19:11:04.739Z,15.50
2023-02-18T19:13:36.151Z,16.20
2023-02-18T19:16:09.800Z,15.37
2023-02-18T19:18:38.699Z,15.40
2023-02-18T19:21:08.351Z,15.53
2023-02-18T19:23:37.438Z,15.37
2023-02-18T19:26:06.537Z,16.00
2023-02-18T19:28:37.416Z,15.37
2023-02-18T19:31:11.037Z,16.23
2023-02-18T19:33:40.190Z,16.87
2023-02-18T19:36:11.126Z,16.47
2023-02-18T19:38:40.190Z,15.40
2023-02-18T19:41:10.472Z,19.60
2023-02-18T19:43:42.076Z,15.97
2023-02-18T19:46:11.848Z,16.40
2023-02-18T19:48:41.037Z,14.10
2023-02-18T19:51:10.937Z,15.87
2023-02-18T19:53:39.744Z,16.80
2023-02-18T19:56:09.241Z,16.70
2023-02-18T19:58:41.080Z,16.60
2023-02-18T20:01:13.089Z,15.00
2023-02-18T20:03:42.092Z,17.17
2023-02-18T20:06:17.205Z,16.47
2023-02-18T20:08:46.170Z,16.30
2023-02-18T20:11:14.760Z,16.90
2023-02-18T20:13:45.051Z,19.57
2023-02-18T20:16:13.898Z,16.67
2023-02-18T20:18:42.786Z,15.90
2023-02-18T20:21:12.677Z,17.70
2023-02-18T20:23:41.486Z,17.30
2023-02-18T20:26:11.118Z,19.70
2023-02-18T20:28:39.677Z,19.20
2023-02-18T20:31:12.406Z,20.70
2023-02-18T20:33:42.533Z,21.33
2023-02-18T20:36:15.042Z,17.43
2023-02-18T20:38:44.102Z,17.57
2023-02-18T20:41:17.906Z,17.77
2023-02-18T20:43:46.660Z,22.90
2023-02-18T20:46:20.850Z,19.43
2023-02-18T20:48:49.527Z,18.80
2023-02-18T20:51:21.117Z,19.67
2023-02-18T20:53:51.046Z,25.90
2023-02-18T20:56:22.371Z,17.50
2023-02-18T20:58:51.911Z,22.60
2023-02-18T21:01:21.985Z,22.47
2023-02-18T21:03:50.887Z,22.70
2023-02-18T21:06:22.879Z,21.00
2023-02-18T21:08:55.208Z,16.97
2023-02-18T21:11:26.808Z,16.23
2023-02-18T21:13:57.746Z,17.73
2023-02-18T21:16:29.808Z,21.40
2023-02-18T21:18:58.458Z,18.50
2023-02-18T21:21:27.846Z,21.10
2023-02-18T21:23:56.469Z,16.73
2023-02-18T21:26:28.344Z,16.17
2023-02-18T21:28:58.530Z,17.43
2023-02-18T21:31:31.831Z,19.33
2023-02-18T21:34:00.434Z,16.83
2023-02-18T21:36:31.553Z,17.03
2023-02-18T21:39:02.482Z,17.53
2023-02-18T21:41:32.236Z,17.27
2023-02-18T21:44:00.935Z,17.20
2023-02-18T21:46:33.512Z,17.20
2023-02-18T21:49:09.744Z,18.40
2023-02-18T21:52:02.014Z,19.47
2023-02-18T21:54:33.660Z,16.90
2023-02-18T21:57:04.931Z,16.00
2023-02-18T21:59:36.065Z,15.90
2023-02-18T22:02:09.946Z,16.40
2023-02-18T22:04:41.586Z,16.93
2023-02-18T22:07:10.603Z,17.03
2023-02-18T22:09:39.414Z,18.03
2023-02-18T22:12:08.380Z,15.30
2023-02-18T22:14:36.911Z,17.97
2023-02-18T22:17:07.026Z,17.20
2023-02-18T22:19:35.732Z,18.73
2023-02-18T22:22:04.710Z,15.50
2023-02-18T22:24:34.107Z,16.70
2023-02-18T22:27:03.098Z,16.80
2023-02-18T22:29:33.276Z,15.83
2023-02-18T22:32:02.541Z,16.53
2023-02-18T22:34:32.781Z,16.73
2023-02-18T22:37:01.403Z,15.03
2023-02-18T22:39:30.179Z,13.20
2023-02-18T22:41:58.874Z,12.50
2023-02-18T22:44:27.790Z,13.23
2023-02-18T22:46:57.632Z,11.73
2023-02-18T22:49:27.188Z,11.90
2023-02-18T22:51:57.063Z,11.03
2023-02-18T22:54:25.538Z,10.40
2023-02-18T22:56:55.393Z,10.00
2023-02-18T22:59:24.332Z,9.30
2023-02-18T23:01:53.845Z,9.23
2023-02-18T23:04:22.613Z,9.17
2023-02-18T23:06:51.789Z,10.43
2023-02-18T23:09:25.047Z,11.03
2023-02-18T23:11:56.371Z,18.37
2023-02-18T23:14:25.939Z,9.97
2023-02-18T23:17:17.788Z,9.50
2023-02-18T23:19:49.140Z,9.33
2023-02-18T23:22:20.195Z,9.13
2023-02-18T23:24:50.236Z,9.87
2023-02-18T23:27:19.664Z,8.60
2023-02-18T23:29:48.398Z,9.20
2023-02-18T23:32:17.000Z,7.80
2023-02-18T23:34:45.766Z,8.90
2023-02-18T23:37:14.385Z,11.13
2023-02-18T23:39:45.362Z,10.90
2023-02-18T23:42:15.325Z,9.30
2023-02-18T23:44:44.144Z,9.90
2023-02-18T23:47:13.005Z,12.53
2023-02-18T23:49:41.599Z,10.73
2023-02-18T23:52:10.012Z,12.67
2023-02-18T23:54:38.519Z,9.27
2023-02-18T23:57:06.961Z,8.47
2023-02-18T23:59:37.734Z,8.10
